createdAt,value
2017-12-25T00:01:12.029Z,16.08
2017-12-25T00:03:40.208Z,14.45
2017-12-25T00:06:08.378Z,17.25
2017-12-25T00:08:36.566Z,14.25
2017-12-25T00:11:04.737Z,14.50
2017-12-25T00:13:32.880Z,14.80
2017-12-25T00:16:00.985Z,15.02
2017-12-25T00:18:29.171Z,15.73
2017-12-25T00:20:57.292Z,16.90
2017-12-25T00:23:25.483Z,16.70
2017-12-25T00:25:54.407Z,14.40
2017-12-25T00:28:22.546Z,14.43
2017-12-25T00:30:51.150Z,16.00
2017-12-25T00:33:19.302Z,14.82
2017-12-25T00:35:48.166Z,17.08
2017-12-25T00:38:16.365Z,14.32
2017-12-25T00:40:45.226Z,15.83
2017-12-25T00:43:14.249Z,14.30
2017-12-25T00:45:42.357Z,14.70
2017-12-25T00:48:10.596Z,15.20
2017-12-25T00:50:39.479Z,15.35
2017-12-25T00:53:07.657Z,16.25
2017-12-25T00:55:36.545Z,15.83
2017-12-25T00:58:04.718Z,15.52
2017-12-25T01:00:33.612Z,16.15
2017-12-25T01:03:01.723Z,14.38
2017-12-25T01:05:29.864Z,15.18
2017-12-25T01:07:58.035Z,15.60
2017-12-25T01:10:26.151Z,17.02
2017-12-25T01:12:54.388Z,16.37
2017-12-25T01:15:22.543Z,15.00
2017-12-25T01:17:51.425Z,16.27
2017-12-25T01:20:19.561Z,13.25
2017-12-25T01:22:47.677Z,14.82
2017-12-25T01:25:15.839Z,14.63
2017-12-25T01:27:44.696Z,14.90
2017-12-25T01:30:15.147Z,14.80
2017-12-25T01:32:43.340Z,14.50
2017-12-25T01:35:12.205Z,14.50
2017-12-25T01:37:41.123Z,14.63
2017-12-25T01:40:10.112Z,14.00
2017-12-25T01:42:38.220Z,14.32
2017-12-25T01:45:06.348Z,14.50
2017-12-25T01:47:34.631Z,14.65
2017-12-25T01:50:02.739Z,14.48
2017-12-25T01:52:30.869Z,15.32
2017-12-25T01:54:59.041Z,14.10
2017-12-25T01:57:28.142Z,15.77
2017-12-25T02:02:52.091Z,16.52
2017-12-25T02:05:46.770Z,14.65
2017-12-25T02:08:29.647Z,14.05
2017-12-25T02:10:57.782Z,14.70
2017-12-25T02:13:26.679Z,16.60
2017-12-25T02:15:55.598Z,14.68
2017-12-25T02:18:23.725Z,14.93
2017-12-25T02:20:51.861Z,13.90
2017-12-25T02:23:20.016Z,15.70
2017-12-25T02:25:48.118Z,15.80
2017-12-25T02:28:16.260Z,14.77
2017-12-25T02:30:44.379Z,14.38
2017-12-25T02:33:12.500Z,15.73
2017-12-25T02:35:40.621Z,14.73
2017-12-25T02:38:08.852Z,12.70
2017-12-25T02:40:36.956Z,14.97
2017-12-25T02:43:05.083Z,15.52
2017-12-25T02:45:33.269Z,14.70
2017-12-25T02:48:01.370Z,16.37
2017-12-25T02:50:29.613Z,13.40
2017-12-25T02:52:58.499Z,12.52
2017-12-25T02:55:26.616Z,12.40
2017-12-25T02:57:54.751Z,12.43
2017-12-25T03:00:22.922Z,12.90
2017-12-25T03:02:51.094Z,14.15
2017-12-25T03:05:20.186Z,12.40
2017-12-25T03:07:49.759Z,13.35
2017-12-25T03:10:18.652Z,12.70
2017-12-25T03:12:47.582Z,12.55
2017-12-25T03:15:15.845Z,14.25
2017-12-25T03:17:44.709Z,13.73
2017-12-25T03:20:13.626Z,13.07
2017-12-25T03:22:41.800Z,11.55
2017-12-25T03:25:10.661Z,12.65
2017-12-25T03:27:39.560Z,12.35
2017-12-25T03:30:07.695Z,13.10
2017-12-25T03:32:35.827Z,12.98
2017-12-25T03:35:04.005Z,11.38
2017-12-25T03:37:32.897Z,13.18
2017-12-25T03:40:01.010Z,14.20
2017-12-25T03:42:29.125Z,13.52
2017-12-25T03:44:57.262Z,15.15
2017-12-25T03:47:25.484Z,13.25
2017-12-25T03:49:54.358Z,13.23
2017-12-25T03:52:22.483Z,13.88
2017-12-25T03:54:50.604Z,13.95
2017-12-25T03:57:18.735Z,13.90
2017-12-25T03:59:46.868Z,12.98
2017-12-25T04:02:15.008Z,12.40
2017-12-25T04:04:43.894Z,11.90
2017-12-25T04:07:12.915Z,13.00
2017-12-25T04:09:41.041Z,12.82
2017-12-25T04:12:09.167Z,11.60
2017-12-25T04:14:37.290Z,10.73
2017-12-25T04:17:06.221Z,11.95
2017-12-25T04:19:35.110Z,10.93
2017-12-25T04:22:03.284Z,12.55
2017-12-25T04:24:32.173Z,11.75
2017-12-25T04:27:01.059Z,13.87
2017-12-25T04:29:29.199Z,11.65
2017-12-25T04:31:57.411Z,11.75
2017-12-25T04:34:26.275Z,11.60
2017-12-25T04:36:54.401Z,11.27
2017-12-25T04:39:22.646Z,11.75
2017-12-25T04:41:51.504Z,12.23
2017-12-25T04:44:20.411Z,10.45
2017-12-25T04:46:48.617Z,11.25
2017-12-25T04:49:16.749Z,12.60
2017-12-25T04:51:45.617Z,11.00
2017-12-25T04:54:13.746Z,12.77
2017-12-25T04:56:41.875Z,11.20
2017-12-25T04:59:10.797Z,12.52
2017-12-25T05:01:39.684Z,12.40
2017-12-25T05:04:07.859Z,12.18
2017-12-25T05:06:36.716Z,11.80
2017-12-25T05:09:05.627Z,11.88
2017-12-25T05:11:33.763Z,11.77
2017-12-25T05:14:01.983Z,12.30
2017-12-25T05:16:30.847Z,12.50
2017-12-25T05:18:59.755Z,11.63
2017-12-25T05:21:27.875Z,12.23
2017-12-25T05:23:56.110Z,12.05
2017-12-25T05:26:24.988Z,11.37
2017-12-25T05:28:53.378Z,10.48
2017-12-25T05:31:22.253Z,10.50
2017-12-25T05:33:50.439Z,11.20
2017-12-25T05:36:19.294Z,11.70
2017-12-25T05:38:48.219Z,11.05
2017-12-25T05:41:17.087Z,11.47
2017-12-25T05:43:45.237Z,11.10
2017-12-25T05:46:13.453Z,11.55
2017-12-25T05:48:42.311Z,10.85
2017-12-25T05:51:11.235Z,10.48
2017-12-25T05:53:40.125Z,12.23
2017-12-25T05:56:08.994Z,11.37
2017-12-25T05:58:37.123Z,12.95
2017-12-25T06:01:05.362Z,12.20
2017-12-25T06:03:33.460Z,11.70
2017-12-25T06:06:01.591Z,12.35
2017-12-25T06:08:29.732Z,11.40
2017-12-25T06:10:57.855Z,11.20
2017-12-25T06:13:25.984Z,10.63
2017-12-25T06:15:54.921Z,12.00
2017-12-25T06:18:23.048Z,12.10
2017-12-25T06:20:51.934Z,10.57
2017-12-25T06:23:20.155Z,12.35
2017-12-25T06:25:48.265Z,10.40
2017-12-25T06:28:16.492Z,11.00
2017-12-25T06:30:45.489Z,11.18
2017-12-25T06:33:13.668Z,9.90
2017-12-25T06:35:41.831Z,10.27
2017-12-25T06:38:10.727Z,10.75
2017-12-25T06:40:38.905Z,10.03
2017-12-25T06:43:07.022Z,10.90
2017-12-25T06:45:35.350Z,10.48
2017-12-25T06:48:03.463Z,10.25
2017-12-25T06:50:31.596Z,11.80
2017-12-25T06:52:59.715Z,10.15
2017-12-25T06:55:27.838Z,12.10
2017-12-25T06:57:55.976Z,12.70
2017-12-25T07:00:24.872Z,11.60
2017-12-25T07:02:52.998Z,12.50
2017-12-25T07:05:21.135Z,11.30
2017-12-25T07:07:49.307Z,11.50
2017-12-25T07:10:18.172Z,13.07
2017-12-25T07:12:47.070Z,12.18
2017-12-25T07:15:15.263Z,12.55
2017-12-25T07:17:43.436Z,12.02
2017-12-25T07:20:11.530Z,11.93
2017-12-25T07:22:39.679Z,12.40
2017-12-25T07:25:07.833Z,11.65
2017-12-25T07:27:36.740Z,11.70
2017-12-25T07:30:05.733Z,10.60
2017-12-25T07:32:34.624Z,10.75
2017-12-25T07:35:02.807Z,12.32
2017-12-25T07:37:30.970Z,10.68
2017-12-25T07:39:59.085Z,11.10
2017-12-25T07:42:27.220Z,11.18
2017-12-25T07:44:55.350Z,12.90
2017-12-25T07:47:24.244Z,10.68
2017-12-25T07:49:53.135Z,11.15
2017-12-25T07:52:21.338Z,10.63
2017-12-25T07:54:49.512Z,11.80
2017-12-25T07:57:17.605Z,10.80
2017-12-25T07:59:45.856Z,10.82
2017-12-25T08:02:14.755Z,11.27
2017-12-25T08:04:42.870Z,10.30
2017-12-25T08:07:10.988Z,10.15
2017-12-25T08:09:39.127Z,9.32
2017-12-25T08:12:08.011Z,9.33
2017-12-25T08:14:36.955Z,10.63
2017-12-25T08:17:05.062Z,10.65
2017-12-25T08:19:33.205Z,10.48
2017-12-25T08:22:01.359Z,9.90
2017-12-25T08:24:30.248Z,7.95
2017-12-25T08:26:59.141Z,10.03
2017-12-25T08:29:27.250Z,9.35
2017-12-25T08:31:55.382Z,9.05
2017-12-25T08:34:23.556Z,10.18
2017-12-25T08:36:52.420Z,9.65
2017-12-25T08:39:21.334Z,8.55
2017-12-25T08:41:49.506Z,9.77
2017-12-25T08:44:18.398Z,9.52
2017-12-25T08:46:47.287Z,8.50
2017-12-25T08:49:16.148Z,8.75
2017-12-25T08:51:45.066Z,9.98
2017-12-25T08:54:13.182Z,9.35
2017-12-25T08:56:41.309Z,9.47
2017-12-25T08:59:09.484Z,8.80
2017-12-25T09:01:38.341Z,9.97
2017-12-25T09:04:07.298Z,9.85
2017-12-25T09:06:36.256Z,8.75
2017-12-25T09:09:05.153Z,9.55
2017-12-25T09:11:33.251Z,8.97
2017-12-25T09:14:01.388Z,9.50
2017-12-25T09:16:29.509Z,9.02
2017-12-25T09:18:57.632Z,10.68
2017-12-25T09:21:25.807Z,9.68
2017-12-25T09:23:53.921Z,9.52
2017-12-25T09:26:22.061Z,9.97
2017-12-25T09:28:51.051Z,10.43
2017-12-25T09:31:19.171Z,8.77
2017-12-25T09:33:47.304Z,8.18
2017-12-25T09:36:15.444Z,9.50
2017-12-25T09:38:43.581Z,9.82
2017-12-25T09:41:11.694Z,9.65
2017-12-25T09:43:40.597Z,10.73
2017-12-25T09:46:09.494Z,8.88
2017-12-25T09:48:37.691Z,10.93
2017-12-25T09:51:05.826Z,9.55
2017-12-25T09:53:34.733Z,8.52
2017-12-25T09:56:03.661Z,8.93
2017-12-25T09:58:31.766Z,7.68
2017-12-25T10:01:01.401Z,8.53
2017-12-25T10:03:29.534Z,10.10
2017-12-25T10:05:57.661Z,8.23
2017-12-25T10:08:25.841Z,8.73
2017-12-25T10:10:54.110Z,8.00
2017-12-25T10:13:22.284Z,10.05
2017-12-25T10:15:51.273Z,9.98
2017-12-25T10:18:20.163Z,10.50
2017-12-25T10:20:48.342Z,10.95
2017-12-25T10:23:16.512Z,11.38
2017-12-25T10:25:45.375Z,9.60
2017-12-25T10:28:14.294Z,10.02
2017-12-25T10:30:42.431Z,10.68
2017-12-25T10:33:10.534Z,10.32
2017-12-25T10:35:38.714Z,10.55
2017-12-25T10:38:07.759Z,9.63
2017-12-25T10:40:35.869Z,9.50
2017-12-25T10:43:04.012Z,10.40
2017-12-25T10:45:32.894Z,9.80
2017-12-25T10:48:01.785Z,9.35
2017-12-25T10:50:30.676Z,8.80
2017-12-25T10:52:58.823Z,8.88
2017-12-25T10:55:26.964Z,10.07
2017-12-25T10:57:55.091Z,9.40
2017-12-25T11:00:28.886Z,7.90
2017-12-25T11:02:57.041Z,8.00
2017-12-25T11:05:25.177Z,8.50
2017-12-25T11:07:53.294Z,8.40
2017-12-25T11:10:21.403Z,7.57
2017-12-25T11:12:50.339Z,7.75
2017-12-25T11:15:18.475Z,6.40
2017-12-25T11:17:47.423Z,5.97
2017-12-25T11:20:15.650Z,6.25
2017-12-25T11:22:44.642Z,6.05
2017-12-25T11:25:13.530Z,6.00
2017-12-25T11:27:41.636Z,6.78
2017-12-25T11:30:09.764Z,6.47
2017-12-25T11:32:37.892Z,6.25
2017-12-25T11:35:06.030Z,5.75
2017-12-25T11:37:34.209Z,5.77
2017-12-25T11:40:02.342Z,6.07
2017-12-25T11:42:31.255Z,6.40
2017-12-25T11:44:59.351Z,5.70
2017-12-25T11:47:27.480Z,5.83
2017-12-25T11:49:55.608Z,6.13
2017-12-25T11:52:24.039Z,6.10
2017-12-25T11:54:52.159Z,6.40
2017-12-25T11:57:20.307Z,6.40
2017-12-25T11:59:48.434Z,6.17
2017-12-25T12:02:17.329Z,6.57
2017-12-25T12:04:46.259Z,5.90
2017-12-25T12:07:14.356Z,5.87
2017-12-25T12:09:42.597Z,6.70
2017-12-25T12:12:11.487Z,6.57
2017-12-25T12:14:39.872Z,7.03
2017-12-25T12:17:08.039Z,6.70
2017-12-25T12:19:36.952Z,6.43
2017-12-25T12:22:05.082Z,6.80
2017-12-25T12:24:33.223Z,7.20
2017-12-25T12:27:01.338Z,6.43
2017-12-25T12:29:29.481Z,6.97
2017-12-25T12:31:58.549Z,6.90
2017-12-25T12:34:26.685Z,6.77
2017-12-25T12:36:57.213Z,7.00
2017-12-25T12:39:25.616Z,7.40
2017-12-25T12:41:53.750Z,8.43
2017-12-25T12:44:21.934Z,8.00
2017-12-25T12:46:50.827Z,7.73
2017-12-25T12:49:18.999Z,7.80
2017-12-25T12:51:47.168Z,9.07
2017-12-25T12:54:15.342Z,9.27
2017-12-25T12:56:44.609Z,8.33
2017-12-25T12:59:13.534Z,9.10
2017-12-25T13:01:42.419Z,9.20
2017-12-25T13:04:10.551Z,10.13
2017-12-25T13:06:39.455Z,10.60
2017-12-25T13:09:08.377Z,9.63
2017-12-25T13:11:36.510Z,10.90
2017-12-25T13:14:05.405Z,10.73
2017-12-25T13:16:34.326Z,10.73
2017-12-25T13:19:02.440Z,12.00
2017-12-25T13:21:30.671Z,11.40
2017-12-25T13:23:58.798Z,11.30
2017-12-25T13:26:27.835Z,14.07
2017-12-25T13:28:56.014Z,11.97
2017-12-25T13:31:24.142Z,10.73
2017-12-25T13:33:53.057Z,10.20
2017-12-25T13:36:21.192Z,9.97
2017-12-25T13:38:49.427Z,10.13
2017-12-25T13:41:18.317Z,10.50
2017-12-25T13:43:46.481Z,10.37
2017-12-25T13:46:14.629Z,10.43
2017-12-25T13:48:43.506Z,10.43
2017-12-25T13:51:12.441Z,11.05
2017-12-25T13:53:40.559Z,12.02
2017-12-25T13:56:09.841Z,12.47
2017-12-25T13:58:37.977Z,13.35
2017-12-25T14:01:06.113Z,13.15
2017-12-25T14:03:35.077Z,13.48
2017-12-25T14:06:03.135Z,13.05
2017-12-25T14:08:31.388Z,14.18
2017-12-25T14:10:59.501Z,13.60
2017-12-25T14:13:27.736Z,13.23
2017-12-25T14:15:55.831Z,14.23
2017-12-25T14:18:23.963Z,13.60
2017-12-25T14:20:52.251Z,14.68
2017-12-25T14:23:20.356Z,14.65
2017-12-25T14:25:48.605Z,14.00
2017-12-25T14:28:16.769Z,14.27
2017-12-25T14:30:44.871Z,14.85
2017-12-25T14:33:13.057Z,13.70
2017-12-25T14:35:41.186Z,12.02
2017-12-25T14:38:09.324Z,14.85
2017-12-25T14:40:37.479Z,14.73
2017-12-25T14:43:07.138Z,16.00
2017-12-25T14:45:36.038Z,14.15
2017-12-25T14:48:04.247Z,14.75
2017-12-25T14:50:32.353Z,15.85
2017-12-25T14:53:01.263Z,14.50
2017-12-25T14:55:29.363Z,12.85
2017-12-25T14:57:57.505Z,15.55
2017-12-25T15:00:26.357Z,14.90
2017-12-25T15:02:55.289Z,14.05
2017-12-25T15:05:23.405Z,13.77
2017-12-25T15:07:51.536Z,14.60
2017-12-25T15:10:19.663Z,15.20
2017-12-25T15:12:48.594Z,14.20
2017-12-25T15:15:16.764Z,14.15
2017-12-25T15:17:45.670Z,12.00
2017-12-25T15:20:13.791Z,13.45
2017-12-25T15:22:42.707Z,13.82
2017-12-25T15:25:10.850Z,14.40
2017-12-25T15:27:40.563Z,14.07
2017-12-25T15:30:09.499Z,14.40
2017-12-25T15:32:37.664Z,14.20
2017-12-25T15:35:05.953Z,13.55
2017-12-25T15:37:34.119Z,13.23
2017-12-25T15:40:02.226Z,15.70
2017-12-25T15:42:30.464Z,13.73
2017-12-25T15:44:58.578Z,14.35
2017-12-25T15:47:26.794Z,14.95
2017-12-25T15:49:54.941Z,13.38
2017-12-25T15:52:23.844Z,14.20
2017-12-25T15:54:52.754Z,14.60
2017-12-25T15:57:21.634Z,14.67
2017-12-25T15:59:49.757Z,13.32
2017-12-25T16:02:17.944Z,14.60
2017-12-25T16:04:46.887Z,14.07
2017-12-25T16:07:15.054Z,13.75
2017-12-25T16:09:43.921Z,15.40
2017-12-25T16:12:12.099Z,15.40
2017-12-25T16:14:41.033Z,15.57
2017-12-25T16:17:09.180Z,17.40
2017-12-25T16:19:38.101Z,15.35
2017-12-25T16:22:06.270Z,18.33
2017-12-25T16:24:34.473Z,16.00
2017-12-25T16:27:02.589Z,16.52
2017-12-25T16:29:30.772Z,15.80
2017-12-25T16:31:58.935Z,16.05
2017-12-25T16:34:27.822Z,16.25
2017-12-25T16:36:56.143Z,18.35
2017-12-25T16:39:24.309Z,16.87
2017-12-25T16:41:52.445Z,18.43
2017-12-25T16:44:20.604Z,17.37
2017-12-25T16:46:48.792Z,17.95
2017-12-25T16:49:17.684Z,18.35
2017-12-25T16:51:45.817Z,18.95
2017-12-25T16:54:14.744Z,20.67
2017-12-25T16:56:42.961Z,18.50
2017-12-25T16:59:11.103Z,18.23
2017-12-25T17:01:39.231Z,18.73
2017-12-25T17:04:08.140Z,19.17
2017-12-25T17:06:36.275Z,19.62
2017-12-25T17:09:04.500Z,19.10
2017-12-25T17:11:32.610Z,17.10
2017-12-25T17:14:02.281Z,18.58
2017-12-25T17:16:30.381Z,17.12
2017-12-25T17:18:58.622Z,15.93
2017-12-25T17:21:27.515Z,14.98
2017-12-25T17:23:56.509Z,15.00
2017-12-25T17:26:24.619Z,14.65
2017-12-25T17:28:52.750Z,13.77
2017-12-25T17:31:20.923Z,14.05
2017-12-25T17:33:49.783Z,14.40
2017-12-25T17:36:18.698Z,15.75
2017-12-25T17:38:46.957Z,15.02
2017-12-25T17:41:15.083Z,15.80
2017-12-25T17:43:43.321Z,14.35
2017-12-25T17:46:12.182Z,13.73
2017-12-25T17:48:41.098Z,14.02
2017-12-25T17:51:09.247Z,13.70
2017-12-25T17:53:38.142Z,16.12
2017-12-25T17:56:07.032Z,14.90
2017-12-25T17:58:35.249Z,14.98
2017-12-25T18:01:03.395Z,14.60
2017-12-25T18:03:32.393Z,17.17
2017-12-25T18:06:01.386Z,17.10
2017-12-25T18:08:30.277Z,16.48
2017-12-25T18:10:58.399Z,15.03
2017-12-25T18:13:26.553Z,18.90
2017-12-25T18:15:54.794Z,18.15
2017-12-25T18:18:23.786Z,15.27
2017-12-25T18:20:52.655Z,17.20
2017-12-25T18:23:20.804Z,16.30
2017-12-25T18:25:48.947Z,17.60
2017-12-25T18:28:17.069Z,19.27
2017-12-25T18:30:45.267Z,22.48
2017-12-25T18:33:14.258Z,24.48
2017-12-25T18:35:42.430Z,25.27
2017-12-25T18:38:11.320Z,22.77
2017-12-25T18:40:40.197Z,23.20
2017-12-25T18:43:08.386Z,23.48
2017-12-25T18:45:37.261Z,25.48
2017-12-25T18:48:06.166Z,24.65
2017-12-25T18:50:34.313Z,27.37
2017-12-25T18:53:03.238Z,27.65
2017-12-25T18:55:31.347Z,27.30
2017-12-25T18:57:59.480Z,25.85
2017-12-25T19:00:27.625Z,24.50
2017-12-25T19:02:55.767Z,25.08
2017-12-25T19:05:23.919Z,26.20
2017-12-25T19:07:52.174Z,26.45
2017-12-25T19:10:20.445Z,27.03
2017-12-25T19:12:48.620Z,25.55
2017-12-25T19:15:16.719Z,27.73
2017-12-25T19:17:44.881Z,27.55
2017-12-25T19:20:13.004Z,29.05
2017-12-25T19:22:41.918Z,32.15
2017-12-25T19:25:10.088Z,29.95
2017-12-25T19:27:38.218Z,28.38
2017-12-25T19:30:06.349Z,33.10
2017-12-25T19:32:34.499Z,45.65
2017-12-25T19:35:03.373Z,48.67
2017-12-25T19:37:31.568Z,37.47
2017-12-25T19:40:00.488Z,42.47
2017-12-25T19:42:28.624Z,41.50
2017-12-25T19:44:56.782Z,40.22
2017-12-25T19:47:24.906Z,34.47
2017-12-25T19:49:53.057Z,30.88
2017-12-25T19:52:21.229Z,28.25
2017-12-25T19:54:49.392Z,27.73
2017-12-25T19:57:18.391Z,28.30
2017-12-25T19:59:46.500Z,29.63
2017-12-25T20:02:14.628Z,29.20
2017-12-25T20:04:42.804Z,30.83
2017-12-25T20:07:11.690Z,31.17
2017-12-25T20:09:40.695Z,30.30
2017-12-25T20:12:08.814Z,32.53
2017-12-25T20:14:37.081Z,30.40
2017-12-25T20:17:05.205Z,29.27
2017-12-25T20:19:34.094Z,28.92
2017-12-25T20:22:02.218Z,29.73
2017-12-25T20:24:30.440Z,26.80
2017-12-25T20:26:59.356Z,26.27
2017-12-25T20:29:27.500Z,28.27
2017-12-25T20:31:56.386Z,27.17
2017-12-25T20:34:24.526Z,28.92
2017-12-25T20:36:52.761Z,27.17
2017-12-25T20:39:20.875Z,27.58
2017-12-25T20:41:49.774Z,32.17
2017-12-25T20:44:18.719Z,29.30
2017-12-25T20:46:46.881Z,30.52
2017-12-25T20:49:14.984Z,30.05
2017-12-25T20:51:43.140Z,28.52
2017-12-25T20:54:11.279Z,29.20
2017-12-25T20:56:39.410Z,29.80
2017-12-25T20:59:07.628Z,29.23
2017-12-25T21:01:36.497Z,28.67
2017-12-25T21:04:04.688Z,28.85
2017-12-25T21:06:33.681Z,28.27
2017-12-25T21:09:02.559Z,30.27
2017-12-25T21:11:30.690Z,33.50
2017-12-25T21:13:58.845Z,36.25
2017-12-25T21:16:26.988Z,34.40
2017-12-25T21:18:55.849Z,35.65
2017-12-25T21:21:24.755Z,39.38
2017-12-25T21:23:52.888Z,37.35
2017-12-25T21:26:21.087Z,32.53
2017-12-25T21:28:49.980Z,34.25
2017-12-25T21:31:18.996Z,32.22
2017-12-25T21:33:47.989Z,32.67
2017-12-25T21:36:17.448Z,35.78
2017-12-25T21:38:45.608Z,35.58
2017-12-25T21:41:13.733Z,36.27
2017-12-25T21:43:41.859Z,33.90
2017-12-25T21:46:10.148Z,27.20
2017-12-25T21:48:38.362Z,28.85
2017-12-25T21:51:06.531Z,28.27
2017-12-25T21:53:35.924Z,29.77
2017-12-25T21:56:04.070Z,28.17
2017-12-25T21:58:33.004Z,26.15
2017-12-25T22:01:01.140Z,24.70
2017-12-25T22:03:30.033Z,27.30
2017-12-25T22:05:59.152Z,25.95
2017-12-25T22:08:28.041Z,29.10
2017-12-25T22:10:56.217Z,32.90
2017-12-25T22:13:24.363Z,35.47
2017-12-25T22:15:53.267Z,29.67
2017-12-25T22:18:22.178Z,29.37
2017-12-25T22:20:50.295Z,28.35
2017-12-25T22:23:18.464Z,28.98
2017-12-25T22:25:46.580Z,28.77
2017-12-25T22:28:14.866Z,29.50
2017-12-25T22:30:43.138Z,29.65
2017-12-25T22:33:11.309Z,28.75
2017-12-25T22:35:40.176Z,27.77
2017-12-25T22:38:09.094Z,27.20
2017-12-25T22:40:37.226Z,26.35
2017-12-25T22:43:06.156Z,25.52
2017-12-25T22:45:34.253Z,24.23
2017-12-25T22:48:02.511Z,23.85
2017-12-25T22:50:30.630Z,24.08
2017-12-25T22:52:58.788Z,24.10
2017-12-25T22:55:26.965Z,23.03
2017-12-25T22:57:55.195Z,23.75
2017-12-25T23:00:23.354Z,22.35
2017-12-25T23:02:51.541Z,24.67
2017-12-25T23:05:19.718Z,25.33
2017-12-25T23:07:47.891Z,25.05
2017-12-25T23:10:16.020Z,23.33
2017-12-25T23:12:44.896Z,23.58
2017-12-25T23:15:13.027Z,24.50
2017-12-25T23:17:41.190Z,24.27
2017-12-25T23:20:09.295Z,23.40
2017-12-25T23:22:37.443Z,22.58
2017-12-25T23:25:05.575Z,24.15
2017-12-25T23:27:34.486Z,24.58
2017-12-25T23:30:02.608Z,24.83
2017-12-25T23:32:30.841Z,23.55
2017-12-25T23:34:59.705Z,24.92
2017-12-25T23:37:28.613Z,24.83
2017-12-25T23:39:56.807Z,23.38
2017-12-25T23:42:24.946Z,22.37
2017-12-25T23:44:53.857Z,22.20
2017-12-25T23:47:21.970Z,21.12
2017-12-25T23:49:50.115Z,22.40
2017-12-25T23:52:18.236Z,21.52
2017-12-25T23:54:47.209Z,21.45
2017-12-25T23:57:15.355Z,21.60
2017-12-25T23:59:43.506Z,22.73
